Time;durP1;ratioP1;P1;durP2;ratioP2;P2;SDS_P1;SDS_P2;PMS_P1;PMS_P2;Temp;Humidity;BMP_temperature;BMP_pressure;BME280_temperature;BME280_humidity;BME280_pressure;Samples;Min_cycle;Max_cycle;Signal;HPM_P1;HPM_P2
2021/12/28 00:02:46;;;;;;;16.80;9.32;;;;;;;;;;10274729;28;20333;-77
2021/12/28 00:07:47;;;;;;;26.83;16.10;;;;;;;;;;10279259;28;20335;-77
2021/12/28 00:12:48;;;;;;;32.83;17.08;;;;;;;;;;10261667;28;20220;-77
2021/12/28 00:17:59;;;;;;;18.80;10.98;;;;;;;;;;10261792;28;20244;-77
2021/12/28 00:23:01;;;;;;;28.27;16.35;;;;;;;;;;10277591;28;20234;-77
2021/12/28 00:28:03;;;;;;;27.13;14.50;;;;;;;;;;10274677;28;20813;-78
2021/12/28 00:33:04;;;;;;;25.13;15.83;;;;;;;;;;10280323;28;20237;-77
2021/12/28 00:38:06;;;;;;;28.70;15.60;;;;;;;;;;10282029;28;20204;-77
2021/12/28 00:43:07;;;;;;;25.20;14.52;;;;;;;;;;10276345;28;20308;-77
2021/12/28 00:48:09;;;;;;;29.33;16.02;;;;;;;;;;10272943;28;20212;-77
2021/12/28 00:53:10;;;;;;;26.17;15.65;;;;;;;;;;10263918;28;20202;-77
2021/12/28 00:58:11;;;;;;;30.83;16.23;;;;;;;;;;10278611;28;20209;-77
2021/12/28 01:03:13;;;;;;;27.70;14.88;;;;;;;;;;10271655;28;20228;-77
2021/12/28 01:08:14;;;;;;;25.80;14.82;;;;;;;;;;10272816;28;24682;-77
2021/12/28 01:13:16;;;;;;;19.05;10.68;;;;;;;;;;10283975;28;20205;-77
2021/12/28 01:18:17;;;;;;;26.38;15.68;;;;;;;;;;10259928;28;20213;-77
2021/12/28 01:23:19;;;;;;;21.07;11.10;;;;;;;;;;10265458;28;20246;-76
2021/12/28 01:28:20;;;;;;;24.77;14.93;;;;;;;;;;10266235;28;20223;-77
2021/12/28 01:33:21;;;;;;;24.58;13.88;;;;;;;;;;10272793;28;20229;-77
2021/12/28 01:38:22;;;;;;;22.47;12.87;;;;;;;;;;10276879;28;20217;-77
2021/12/28 01:43:24;;;;;;;24.15;14.45;;;;;;;;;;10280368;28;20244;-76
2021/12/28 01:48:27;;;;;;;22.15;11.68;;;;;;;;;;10284875;28;20207;-77
2021/12/28 01:53:28;;;;;;;24.42;13.43;;;;;;;;;;10258218;28;20241;-77
2021/12/28 01:58:29;;;;;;;24.23;14.00;;;;;;;;;;10266240;28;20232;-76
2021/12/28 02:03:31;;;;;;;22.52;14.15;;;;;;;;;;10253434;28;20214;-76
2021/12/28 02:08:33;;;;;;;23.40;13.40;;;;;;;;;;10259052;28;20221;-77
2021/12/28 02:13:34;;;;;;;26.38;13.32;;;;;;;;;;10261488;28;20205;-77
2021/12/28 02:18:35;;;;;;;18.73;12.50;;;;;;;;;;10285511;28;20202;-76
2021/12/28 02:23:36;;;;;;;25.00;14.05;;;;;;;;;;10284866;28;20561;-76
2021/12/28 02:28:37;;;;;;;22.77;13.80;;;;;;;;;;10272997;28;20220;-77
2021/12/28 02:33:39;;;;;;;23.75;13.93;;;;;;;;;;10289008;28;20217;-77
2021/12/28 02:38:40;;;;;;;23.20;13.93;;;;;;;;;;10288199;28;20248;-78
2021/12/28 02:43:42;;;;;;;27.40;14.77;;;;;;;;;;10293345;28;20231;-77
2021/12/28 02:48:43;;;;;;;23.33;13.57;;;;;;;;;;10273359;28;20233;-80
2021/12/28 02:53:45;;;;;;;24.95;14.30;;;;;;;;;;10270830;28;20248;-78
2021/12/28 02:58:48;;;;;;;22.85;13.90;;;;;;;;;;10277466;28;20744;-78
2021/12/28 03:03:54;;;;;;;25.95;14.52;;;;;;;;;;10276612;28;20316;-77
2021/12/28 03:08:56;;;;;;;20.80;13.30;;;;;;;;;;10290193;28;20212;-78
2021/12/28 03:13:59;;;;;;;25.58;14.63;;;;;;;;;;10287086;28;20217;-77
2021/12/28 03:19:01;;;;;;;24.45;14.10;;;;;;;;;;10273472;28;20206;-77
2021/12/28 03:24:02;;;;;;;26.70;15.23;;;;;;;;;;10277553;28;20283;-78
2021/12/28 03:29:04;;;;;;;20.98;11.57;;;;;;;;;;10278503;28;20205;-78
2021/12/28 03:34:05;;;;;;;23.77;13.13;;;;;;;;;;10268818;28;20793;-79
2021/12/28 03:39:06;;;;;;;22.20;14.23;;;;;;;;;;10296059;28;20216;-78
2021/12/28 03:44:07;;;;;;;17.58;11.02;;;;;;;;;;10292552;28;20227;-78
2021/12/28 03:49:08;;;;;;;18.40;11.48;;;;;;;;;;10287618;28;20222;-78
2021/12/28 03:54:09;;;;;;;25.35;13.93;;;;;;;;;;10273656;28;20692;-78
2021/12/28 03:59:10;;;;;;;21.92;12.65;;;;;;;;;;10288350;28;20247;-78
2021/12/28 04:04:11;;;;;;;20.23;12.18;;;;;;;;;;10296355;28;20229;-78
2021/12/28 04:09:13;;;;;;;23.80;14.02;;;;;;;;;;10286714;28;20201;-78
2021/12/28 04:14:14;;;;;;;28.33;15.02;;;;;;;;;;10293218;28;20215;-78
2021/12/28 04:19:15;;;;;;;24.05;14.30;;;;;;;;;;10299464;28;20209;-78
2021/12/28 04:24:16;;;;;;;24.38;13.57;;;;;;;;;;10299813;28;20335;-78
2021/12/28 04:29:17;;;;;;;26.10;14.63;;;;;;;;;;10298449;28;20209;-78
2021/12/28 04:34:18;;;;;;;22.92;13.40;;;;;;;;;;10298947;28;20288;-78
2021/12/28 04:39:19;;;;;;;23.88;13.82;;;;;;;;;;10299750;28;20207;-78
2021/12/28 04:44:24;;;;;;;29.70;16.00;;;;;;;;;;10282044;28;20275;-78
2021/12/28 04:49:27;;;;;;;26.27;15.00;;;;;;;;;;10282909;28;20240;-78
2021/12/28 04:54:28;;;;;;;26.77;14.95;;;;;;;;;;10271785;28;20210;-78
2021/12/28 04:59:29;;;;;;;27.23;15.90;;;;;;;;;;10295332;28;20205;-78
2021/12/28 05:04:30;;;;;;;28.52;14.50;;;;;;;;;;10274454;28;20230;-78
2021/12/28 05:09:31;;;;;;;28.40;16.15;;;;;;;;;;10274086;28;20236;-78
2021/12/28 05:14:33;;;;;;;26.08;14.63;;;;;;;;;;10299542;28;20205;-78
2021/12/28 05:19:34;;;;;;;29.30;16.23;;;;;;;;;;10287877;28;20213;-78
2021/12/28 05:24:36;;;;;;;29.45;16.00;;;;;;;;;;10297430;28;20255;-78
2021/12/28 05:29:37;;;;;;;26.95;15.50;;;;;;;;;;10293960;28;20206;-78
2021/12/28 05:34:38;;;;;;;21.27;14.90;;;;;;;;;;10280441;28;20295;-78
2021/12/28 05:39:39;;;;;;;22.88;14.30;;;;;;;;;;10284831;28;20277;-78
2021/12/28 05:44:41;;;;;;;23.98;14.10;;;;;;;;;;10280275;28;20225;-78
2021/12/28 05:49:42;;;;;;;28.55;14.90;;;;;;;;;;10292351;28;20217;-78
2021/12/28 05:54:43;;;;;;;27.75;14.60;;;;;;;;;;10302917;28;20209;-78
2021/12/28 05:59:44;;;;;;;30.52;15.52;;;;;;;;;;10285534;28;20299;-78
2021/12/28 06:04:45;;;;;;;28.20;15.98;;;;;;;;;;10303193;28;20310;-79
2021/12/28 06:09:46;;;;;;;24.98;15.07;;;;;;;;;;10300878;28;20255;-78
2021/12/28 06:14:47;;;;;;;24.23;14.60;;;;;;;;;;10309588;28;20209;-78
2021/12/28 06:19:48;;;;;;;28.17;14.68;;;;;;;;;;10304553;28;20694;-79
2021/12/28 06:24:49;;;;;;;25.98;15.13;;;;;;;;;;10283856;28;20232;-78
2021/12/28 06:29:50;;;;;;;30.63;16.27;;;;;;;;;;10300536;28;20198;-79
2021/12/28 06:34:51;;;;;;;24.50;15.07;;;;;;;;;;10283500;28;20994;-79
2021/12/28 06:39:52;;;;;;;27.10;15.07;;;;;;;;;;10296392;28;20209;-78
2021/12/28 06:44:54;;;;;;;25.33;15.43;;;;;;;;;;10302835;28;20236;-79
2021/12/28 06:49:55;;;;;;;27.92;15.82;;;;;;;;;;10306086;28;20209;-79
2021/12/28 06:54:56;;;;;;;27.50;15.15;;;;;;;;;;10301825;28;20993;-78
2021/12/28 06:59:57;;;;;;;29.70;16.10;;;;;;;;;;10302674;28;20233;-78
2021/12/28 07:04:58;;;;;;;27.60;15.30;;;;;;;;;;10296175;28;20248;-79
2021/12/28 07:09:59;;;;;;;25.98;15.50;;;;;;;;;;10285904;28;20209;-80
2021/12/28 07:15:00;;;;;;;28.63;15.77;;;;;;;;;;10298313;28;20652;-79
2021/12/28 07:20:01;;;;;;;27.95;16.30;;;;;;;;;;10295460;28;20213;-79
2021/12/28 07:25:02;;;;;;;28.35;16.58;;;;;;;;;;10279377;28;20218;-79
2021/12/28 07:30:05;;;;;;;29.27;16.70;;;;;;;;;;10279413;28;20205;-79
2021/12/28 07:35:07;;;;;;;26.55;16.30;;;;;;;;;;10287588;28;20232;-79
2021/12/28 07:40:09;;;;;;;27.10;16.15;;;;;;;;;;10305150;28;20658;-79
2021/12/28 07:45:11;;;;;;;26.92;16.88;;;;;;;;;;10281521;28;20225;-79
2021/12/28 07:50:14;;;;;;;31.60;16.73;;;;;;;;;;10290648;28;20248;-79
2021/12/28 07:55:15;;;;;;;30.70;16.40;;;;;;;;;;10290532;28;20209;-78
2021/12/28 08:00:18;;;;;;;28.60;16.85;;;;;;;;;;10303998;28;20200;-80
2021/12/28 08:05:19;;;;;;;30.60;15.70;;;;;;;;;;10282776;28;20236;-81
2021/12/28 08:10:21;;;;;;;27.55;15.52;;;;;;;;;;10274124;28;20253;-81
2021/12/28 08:15:23;;;;;;;22.80;13.77;;;;;;;;;;10283476;28;20696;-81
2021/12/28 08:20:24;;;;;;;23.77;13.85;;;;;;;;;;10283744;28;20217;-82
2021/12/28 08:25:25;;;;;;;24.95;14.63;;;;;;;;;;10277181;28;20696;-80
2021/12/28 08:30:26;;;;;;;27.30;14.80;;;;;;;;;;10281204;28;20233;-80
2021/12/28 08:35:27;;;;;;;22.83;13.90;;;;;;;;;;10287893;28;20213;-81
2021/12/28 08:40:28;;;;;;;21.85;14.35;;;;;;;;;;10285144;28;20201;-80
2021/12/28 08:45:29;;;;;;;24.83;12.73;;;;;;;;;;10274044;28;20701;-80
2021/12/28 08:50:30;;;;;;;20.38;12.98;;;;;;;;;;10257366;28;20202;-81
2021/12/28 08:55:32;;;;;;;21.75;13.13;;;;;;;;;;10266172;28;20209;-80
2021/12/28 09:00:34;;;;;;;20.42;12.82;;;;;;;;;;10260284;28;20227;-81
2021/12/28 09:05:37;;;;;;;25.33;12.57;;;;;;;;;;10258654;28;20226;-81
2021/12/28 09:10:38;;;;;;;19.30;12.82;;;;;;;;;;10287515;28;20264;-80
2021/12/28 09:15:39;;;;;;;19.98;12.80;;;;;;;;;;10256609;28;20292;-80
2021/12/28 09:20:40;;;;;;;15.43;10.85;;;;;;;;;;10278958;28;20214;-80
2021/12/28 09:25:41;;;;;;;20.10;12.15;;;;;;;;;;10264189;28;20581;-80
2021/12/28 09:30:43;;;;;;;17.48;11.23;;;;;;;;;;10279578;28;20213;-81
2021/12/28 09:35:44;;;;;;;18.33;12.18;;;;;;;;;;10262861;28;20209;-81
2021/12/28 09:40:46;;;;;;;16.60;11.10;;;;;;;;;;10286088;28;20363;-80
2021/12/28 09:45:48;;;;;;;18.48;10.40;;;;;;;;;;10270331;28;20217;-80
2021/12/28 09:50:49;;;;;;;16.23;10.85;;;;;;;;;;10267894;28;20204;-79
2021/12/28 09:55:50;;;;;;;11.00;6.75;;;;;;;;;;10280883;28;20587;-80
2021/12/28 10:00:51;;;;;;;14.23;9.77;;;;;;;;;;10276423;28;20232;-80
2021/12/28 10:05:52;;;;;;;18.25;10.82;;;;;;;;;;10319530;28;21034;-80
2021/12/28 10:10:57;;;;;;;18.67;10.77;;;;;;;;;;10290169;28;20264;-80
2021/12/28 10:15:59;;;;;;;17.48;10.93;;;;;;;;;;10291773;28;20201;-81
2021/12/28 10:21:01;;;;;;;16.42;11.05;;;;;;;;;;10273787;28;20888;-80
2021/12/28 10:26:10;;;;;;;17.23;10.90;;;;;;;;;;10268852;28;20325;-79
2021/12/28 10:31:19;;;;;;;14.52;10.82;;;;;;;;;;10282814;28;20213;-80
2021/12/28 10:36:20;;;;;;;16.55;10.25;;;;;;;;;;10269273;28;20214;-78
2021/12/28 10:41:22;;;;;;;17.05;10.93;;;;;;;;;;10292332;28;20244;-82
2021/12/28 10:46:24;;;;;;;16.55;10.50;;;;;;;;;;10287559;28;20221;-83
2021/12/28 10:51:28;;;;;;;17.52;10.27;;;;;;;;;;10271038;28;20201;-83
2021/12/28 10:56:30;;;;;;;17.00;10.95;;;;;;;;;;10283954;28;21110;-82
2021/12/28 11:01:33;;;;;;;18.27;10.60;;;;;;;;;;10291074;28;20221;-82
2021/12/28 11:06:37;;;;;;;19.45;11.73;;;;;;;;;;10287129;28;20308;-80
2021/12/28 11:11:40;;;;;;;6.07;5.40;;;;;;;;;;10281031;28;20312;-83
2021/12/28 11:16:42;;;;;;;15.43;10.60;;;;;;;;;;10284491;28;20213;-82
2021/12/28 11:21:51;;;;;;;14.10;8.98;;;;;;;;;;10288776;28;20329;-79
2021/12/28 11:26:52;;;;;;;15.50;10.88;;;;;;;;;;10290800;28;20237;-79
2021/12/28 11:31:59;;;;;;;13.85;10.88;;;;;;;;;;10275161;28;20241;-80
2021/12/28 11:37:01;;;;;;;14.05;10.45;;;;;;;;;;10265932;28;20316;-80
2021/12/28 11:42:03;;;;;;;13.95;9.70;;;;;;;;;;10276943;28;20205;-80
2021/12/28 11:47:06;;;;;;;12.30;8.20;;;;;;;;;;10285796;28;20220;-79
2021/12/28 11:52:08;;;;;;;17.42;9.63;;;;;;;;;;10283408;28;20209;-79
2021/12/28 11:57:11;;;;;;;14.27;9.80;;;;;;;;;;10281286;28;20206;-79
2021/12/28 12:02:12;;;;;;;16.15;10.35;;;;;;;;;;10279090;28;20225;-79
2021/12/28 12:07:16;;;;;;;17.85;9.95;;;;;;;;;;10281556;28;20198;-79
2021/12/28 12:12:19;;;;;;;14.02;9.98;;;;;;;;;;10282699;28;20197;-80
2021/12/28 12:17:29;;;;;;;14.40;10.10;;;;;;;;;;10299352;28;20201;-80
2021/12/28 12:22:30;;;;;;;17.58;10.27;;;;;;;;;;10278327;28;20240;-78
2021/12/28 12:27:50;;;;;;;14.07;9.90;;;;;;;;;;10252646;28;20221;-78
2021/12/28 12:33:06;;;;;;;16.58;9.52;;;;;;;;;;10272907;28;20713;-79
2021/12/28 12:38:10;;;;;;;12.15;8.25;;;;;;;;;;10280428;28;20204;-79
2021/12/28 12:43:12;;;;;;;15.05;9.27;;;;;;;;;;10276081;28;20272;-79
2021/12/28 12:48:29;;;;;;;16.02;10.70;;;;;;;;;;10283621;28;20252;-79
2021/12/28 12:53:45;;;;;;;17.00;10.10;;;;;;;;;;10271365;28;20221;-79
2021/12/28 12:58:48;;;;;;;20.13;11.13;;;;;;;;;;10268350;28;20290;-81
2021/12/28 13:03:49;;;;;;;20.90;9.90;;;;;;;;;;10288426;28;20316;-80
2021/12/28 13:08:57;;;;;;;17.40;10.52;;;;;;;;;;10264192;28;20224;-80
2021/12/28 13:13:58;;;;;;;15.63;10.13;;;;;;;;;;10287504;28;20236;-80
2021/12/28 13:19:08;;;;;;;18.92;10.82;;;;;;;;;;10291658;28;20209;-79
2021/12/28 13:24:13;;;;;;;21.33;10.90;;;;;;;;;;10281390;28;20213;-80
2021/12/28 13:29:23;;;;;;;22.77;10.88;;;;;;;;;;10275677;28;20228;-80
2021/12/28 13:34:25;;;;;;;18.38;10.68;;;;;;;;;;10281847;28;20221;-80
2021/12/28 13:39:26;;;;;;;18.95;10.05;;;;;;;;;;10260431;28;20212;-80
2021/12/28 13:44:27;;;;;;;20.38;10.80;;;;;;;;;;10288722;28;20231;-80
2021/12/28 13:49:28;;;;;;;20.08;10.05;;;;;;;;;;10259625;28;20784;-80
2021/12/28 13:54:29;;;;;;;14.15;10.40;;;;;;;;;;10273203;28;20200;-79
2021/12/28 13:59:30;;;;;;;16.35;10.70;;;;;;;;;;10293060;28;20229;-80
2021/12/28 14:04:31;;;;;;;14.75;9.77;;;;;;;;;;10269183;28;20344;-79
2021/12/28 14:09:32;;;;;;;18.25;10.40;;;;;;;;;;10291164;28;20336;-80
2021/12/28 14:14:35;;;;;;;21.73;10.95;;;;;;;;;;10284635;28;21048;-81
2021/12/28 14:19:37;;;;;;;16.40;10.27;;;;;;;;;;10293895;28;20209;-80
2021/12/28 14:24:38;;;;;;;15.68;10.98;;;;;;;;;;10296723;28;20222;-81
2021/12/28 14:29:39;;;;;;;15.80;10.95;;;;;;;;;;10289645;28;20207;-80
2021/12/28 14:34:42;;;;;;;13.25;9.85;;;;;;;;;;10294698;28;20217;-81
2021/12/28 14:39:44;;;;;;;14.50;9.75;;;;;;;;;;10294759;28;20288;-80
2021/12/28 14:44:47;;;;;;;18.65;9.32;;;;;;;;;;10279953;28;20534;-81
2021/12/28 14:49:49;;;;;;;16.33;9.70;;;;;;;;;;10293146;28;20209;-81
2021/12/28 14:55:00;;;;;;;15.25;9.18;;;;;;;;;;10291843;28;20208;-81
2021/12/28 15:00:16;;;;;;;15.38;9.50;;;;;;;;;;10290902;28;20212;-81
2021/12/28 15:05:17;;;;;;;13.13;9.45;;;;;;;;;;10291365;28;20228;-80
2021/12/28 15:10:18;;;;;;;10.88;8.90;;;;;;;;;;10274483;28;20284;-81
2021/12/28 15:15:19;;;;;;;10.45;8.38;;;;;;;;;;10287872;28;20213;-81
2021/12/28 15:20:20;;;;;;;14.38;9.73;;;;;;;;;;10289218;28;20197;-82
2021/12/28 15:25:22;;;;;;;16.63;10.95;;;;;;;;;;10263181;28;20221;-80
2021/12/28 15:30:24;;;;;;;16.13;9.82;;;;;;;;;;10279034;28;20197;-82
2021/12/28 15:35:27;;;;;;;15.43;10.48;;;;;;;;;;10285957;28;20205;-79
2021/12/28 15:40:28;;;;;;;14.20;9.77;;;;;;;;;;10289835;28;21081;-79
2021/12/28 15:45:29;;;;;;;13.43;9.27;;;;;;;;;;10299383;28;20224;-78
2021/12/28 15:50:31;;;;;;;11.45;9.27;;;;;;;;;;10295460;28;20201;-79
2021/12/28 15:55:32;;;;;;;11.32;8.88;;;;;;;;;;10301593;28;20216;-79
2021/12/28 16:00:33;;;;;;;12.15;8.80;;;;;;;;;;10304730;28;20237;-78
2021/12/28 16:05:34;;;;;;;15.82;8.80;;;;;;;;;;10302593;28;20220;-79
2021/12/28 16:10:35;;;;;;;10.45;8.30;;;;;;;;;;10282148;28;20204;-78
2021/12/28 16:15:36;;;;;;;9.70;7.95;;;;;;;;;;10287051;28;20208;-78
2021/12/28 16:20:37;;;;;;;11.65;8.73;;;;;;;;;;10300904;28;20201;-79
2021/12/28 16:25:38;;;;;;;9.10;8.20;;;;;;;;;;10299234;28;20287;-78
2021/12/28 16:30:39;;;;;;;9.60;7.65;;;;;;;;;;10300001;28;20221;-78
2021/12/28 16:35:40;;;;;;;9.15;7.57;;;;;;;;;;10310544;28;20283;-78
2021/12/28 16:40:42;;;;;;;9.13;7.70;;;;;;;;;;10312595;28;20196;-78
2021/12/28 16:45:43;;;;;;;7.00;6.32;;;;;;;;;;10286389;28;20325;-78
2021/12/28 16:50:44;;;;;;;7.78;7.00;;;;;;;;;;10296310;28;20268;-79
2021/12/28 16:55:46;;;;;;;8.00;7.07;;;;;;;;;;10307740;28;20294;-79
2021/12/28 17:00:48;;;;;;;8.48;7.07;;;;;;;;;;10307339;28;20235;-80
2021/12/28 17:05:49;;;;;;;8.98;8.05;;;;;;;;;;10299691;28;20282;-79
2021/12/28 17:10:54;;;;;;;8.38;6.93;;;;;;;;;;10305205;28;20699;-80
2021/12/28 17:15:55;;;;;;;9.00;7.45;;;;;;;;;;10305760;28;20252;-80
2021/12/28 17:20:56;;;;;;;10.60;7.93;;;;;;;;;;10301456;28;20268;-81
2021/12/28 17:25:57;;;;;;;12.68;8.25;;;;;;;;;;10297877;28;20235;-80
2021/12/28 17:31:00;;;;;;;11.38;8.05;;;;;;;;;;10300914;28;20261;-81
2021/12/28 17:36:02;;;;;;;9.77;8.05;;;;;;;;;;10294299;28;20209;-80
2021/12/28 17:41:03;;;;;;;10.20;8.88;;;;;;;;;;10294088;28;20214;-80
2021/12/28 17:46:04;;;;;;;11.57;8.88;;;;;;;;;;10279681;28;20220;-80
2021/12/28 17:51:06;;;;;;;9.90;8.02;;;;;;;;;;10288655;28;20197;-80
2021/12/28 17:56:07;;;;;;;14.68;9.23;;;;;;;;;;10304982;28;20313;-80
2021/12/28 18:01:08;;;;;;;15.27;10.13;;;;;;;;;;10301403;28;20296;-80
2021/12/28 18:06:09;;;;;;;10.02;8.75;;;;;;;;;;10284625;28;20312;-80
2021/12/28 18:11:10;;;;;;;10.50;8.65;;;;;;;;;;10301230;28;20272;-80
2021/12/28 18:16:17;;;;;;;12.38;8.82;;;;;;;;;;10301269;28;20216;-81
2021/12/28 18:21:18;;;;;;;12.70;8.63;;;;;;;;;;10305218;28;20201;-80
2021/12/28 18:26:19;;;;;;;10.63;9.52;;;;;;;;;;10302550;28;21023;-80
2021/12/28 18:31:20;;;;;;;13.95;9.90;;;;;;;;;;10299387;28;20280;-80
2021/12/28 18:36:21;;;;;;;12.77;11.20;;;;;;;;;;10306999;28;20813;-80
2021/12/28 18:41:22;;;;;;;10.80;9.70;;;;;;;;;;10289366;28;20208;-81
2021/12/28 18:46:23;;;;;;;11.93;10.73;;;;;;;;;;10307210;28;20252;-80
2021/12/28 18:51:24;;;;;;;15.63;10.90;;;;;;;;;;10326344;28;20205;-79
2021/12/28 18:56:25;;;;;;;13.57;11.10;;;;;;;;;;10311072;28;20204;-80
2021/12/28 19:01:26;;;;;;;12.75;10.80;;;;;;;;;;10289270;28;20254;-83
2021/12/28 19:06:28;;;;;;;12.65;11.05;;;;;;;;;;10316987;28;20323;-79
2021/12/28 19:11:29;;;;;;;11.38;10.13;;;;;;;;;;10314313;28;20984;-79
2021/12/28 19:16:30;;;;;;;12.85;10.93;;;;;;;;;;10324998;28;20213;-79
2021/12/28 19:21:31;;;;;;;16.38;11.70;;;;;;;;;;10297685;28;20223;-79
2021/12/28 19:26:32;;;;;;;14.13;11.20;;;;;;;;;;10307164;28;20264;-78
2021/12/28 19:31:33;;;;;;;13.00;11.57;;;;;;;;;;10298572;28;20224;-79
2021/12/28 19:36:34;;;;;;;12.52;10.95;;;;;;;;;;10299705;28;20269;-79
2021/12/28 19:41:35;;;;;;;39.88;26.80;;;;;;;;;;10303900;28;21044;-78
2021/12/28 19:46:36;;;;;;;15.35;12.35;;;;;;;;;;10299016;28;20642;-79
2021/12/28 19:51:38;;;;;;;15.80;13.35;;;;;;;;;;10300191;28;20209;-78
2021/12/28 19:56:39;;;;;;;12.93;11.32;;;;;;;;;;10299604;28;20193;-78
2021/12/28 20:01:40;;;;;;;24.92;20.40;;;;;;;;;;10298502;28;20221;-79
2021/12/28 20:06:43;;;;;;;15.15;11.68;;;;;;;;;;10298997;28;20248;-78
2021/12/28 20:11:44;;;;;;;14.30;12.48;;;;;;;;;;10298961;28;20685;-78
2021/12/28 20:16:45;;;;;;;17.05;12.32;;;;;;;;;;10301659;28;20669;-79
2021/12/28 20:21:47;;;;;;;15.07;11.40;;;;;;;;;;10300329;28;20215;-79
2021/12/28 20:26:48;;;;;;;15.48;12.43;;;;;;;;;;10299419;28;20225;-79
2021/12/28 20:31:49;;;;;;;14.35;12.25;;;;;;;;;;10292727;28;20759;-79
2021/12/28 20:36:50;;;;;;;13.40;12.10;;;;;;;;;;10298986;28;20470;-79
2021/12/28 20:41:52;;;;;;;14.23;10.95;;;;;;;;;;10283985;28;21038;-79
2021/12/28 20:46:53;;;;;;;12.32;10.07;;;;;;;;;;10302999;28;20368;-79
2021/12/28 20:51:54;;;;;;;14.07;11.48;;;;;;;;;;10284045;28;20266;-79
2021/12/28 20:56:55;;;;;;;17.20;10.65;;;;;;;;;;10299661;28;20211;-79
2021/12/28 21:01:57;;;;;;;14.38;10.73;;;;;;;;;;10311574;28;20308;-79
2021/12/28 21:07:02;;;;;;;12.02;10.30;;;;;;;;;;10284665;28;20419;-79
2021/12/28 21:12:04;;;;;;;14.40;11.13;;;;;;;;;;10300337;28;20205;-79
2021/12/28 21:17:06;;;;;;;11.38;9.68;;;;;;;;;;10300789;28;20211;-79
2021/12/28 21:22:07;;;;;;;14.48;11.05;;;;;;;;;;10279772;28;20264;-79
2021/12/28 21:27:08;;;;;;;14.82;11.80;;;;;;;;;;10297136;28;20568;-79
2021/12/28 21:32:09;;;;;;;13.68;11.18;;;;;;;;;;10293290;28;20732;-79
2021/12/28 21:37:10;;;;;;;13.95;10.60;;;;;;;;;;10281136;28;20209;-79
2021/12/28 21:42:12;;;;;;;14.30;11.80;;;;;;;;;;10295933;28;20201;-79
2021/12/28 21:47:14;;;;;;;14.43;11.90;;;;;;;;;;10295187;28;20335;-79
2021/12/28 21:52:15;;;;;;;13.75;11.70;;;;;;;;;;10296595;28;20198;-79
2021/12/28 21:57:16;;;;;;;12.95;11.45;;;;;;;;;;10294904;28;20205;-79
2021/12/28 22:02:17;;;;;;;15.18;12.13;;;;;;;;;;10295216;28;20221;-79
2021/12/28 22:07:19;;;;;;;14.23;12.60;;;;;;;;;;10296791;28;20231;-79
2021/12/28 22:12:20;;;;;;;15.52;12.73;;;;;;;;;;10296714;28;20228;-79
2021/12/28 22:17:22;;;;;;;17.05;12.88;;;;;;;;;;10291367;28;20574;-78
2021/12/28 22:22:23;;;;;;;14.30;12.23;;;;;;;;;;10295497;28;20296;-79
2021/12/28 22:27:24;;;;;;;15.75;12.18;;;;;;;;;;10294145;28;20284;-78
2021/12/28 22:32:25;;;;;;;20.25;13.57;;;;;;;;;;10297558;28;20221;-78
2021/12/28 22:37:26;;;;;;;17.27;12.93;;;;;;;;;;10301774;28;20236;-79
2021/12/28 22:42:27;;;;;;;19.98;13.38;;;;;;;;;;10289206;28;20208;-79
2021/12/28 22:47:28;;;;;;;15.02;12.15;;;;;;;;;;10306726;28;20225;-78
2021/12/28 22:52:29;;;;;;;16.30;11.50;;;;;;;;;;10301023;28;20201;-79
2021/12/28 22:57:30;;;;;;;13.18;11.32;;;;;;;;;;10287600;28;20204;-79
2021/12/28 23:02:31;;;;;;;14.73;10.43;;;;;;;;;;10285917;28;20262;-79
2021/12/28 23:07:33;;;;;;;11.48;10.20;;;;;;;;;;10304108;28;20228;-78
2021/12/28 23:12:34;;;;;;;10.25;9.20;;;;;;;;;;10300739;28;20202;-79
2021/12/28 23:17:36;;;;;;;10.95;8.15;;;;;;;;;;10307742;28;20296;-79
2021/12/28 23:22:38;;;;;;;12.07;7.57;;;;;;;;;;10290379;28;20695;-78
2021/12/28 23:27:39;;;;;;;14.27;7.55;;;;;;;;;;10303983;28;20217;-79
2021/12/28 23:32:40;;;;;;;9.15;7.10;;;;;;;;;;10302117;28;20836;-78
2021/12/28 23:37:41;;;;;;;8.65;6.70;;;;;;;;;;10304650;28;20220;-79
2021/12/28 23:42:42;;;;;;;8.15;7.35;;;;;;;;;;10304822;28;20197;-79
2021/12/28 23:47:44;;;;;;;10.50;8.32;;;;;;;;;;10307310;28;20207;-79
2021/12/28 23:52:45;;;;;;;7.03;6.13;;;;;;;;;;10305796;28;20201;-78
2021/12/28 23:57:47;;;;;;;9.75;7.50;;;;;;;;;;10305509;28;20221;-79
